sensor_id;sensor_type;location;lat;lon;timestamp;temperature;humidity
76838;DHT22;65797;47.352;8.164;2023-03-21T00:00:29;6.00;99.90
76838;DHT22;65797;47.352;8.164;2023-03-21T00:02:55;5.90;99.90
76838;DHT22;65797;47.352;8.164;2023-03-21T00:05:20;5.90;72.40
76838;DHT22;65797;47.352;8.164;2023-03-21T00:07:46;5.70;99.90
76838;DHT22;65797;47.352;8.164;2023-03-21T00:10:12;5.70;99.90
76838;DHT22;65797;47.352;8.164;2023-03-21T00:12:38;5.70;1.00
76838;DHT22;65797;47.352;8.164;2023-03-21T00:15:12;5.70;99.90
76838;DHT22;65797;47.352;8.164;2023-03-21T00:17:38;5.70;99.90
76838;DHT22;65797;47.352;8.164;2023-03-21T00:20:05;5.70;99.90
76838;DHT22;65797;47.352;8.164;2023-03-21T00:22:35;5.60;99.90
76838;DHT22;65797;47.352;8.164;2023-03-21T00:25:01;5.50;99.90
76838;DHT22;65797;47.352;8.164;2023-03-21T00:27:27;5.50;99.90
76838;DHT22;65797;47.352;8.164;2023-03-21T00:29:53;5.50;99.90
76838;DHT22;65797;47.352;8.164;2023-03-21T00:32:20;5.40;99.90
76838;DHT22;65797;47.352;8.164;2023-03-21T00:34:46;5.40;99.90
76838;DHT22;65797;47.352;8.164;2023-03-21T00:37:12;5.40;99.90
76838;DHT22;65797;47.352;8.164;2023-03-21T00:39:41;5.40;99.90
76838;DHT22;65797;47.352;8.164;2023-03-21T00:42:09;5.30;99.90
76838;DHT22;65797;47.352;8.164;2023-03-21T00:44:34;5.30;99.90
76838;DHT22;65797;47.352;8.164;2023-03-21T00:47:02;5.20;99.90
76838;DHT22;65797;47.352;8.164;2023-03-21T00:49:28;5.10;99.90
76838;DHT22;65797;47.352;8.164;2023-03-21T00:51:59;5.10;99.90
76838;DHT22;65797;47.352;8.164;2023-03-21T00:54:24;5.10;99.90
76838;DHT22;65797;47.352;8.164;2023-03-21T00:56:50;5.10;99.90
76838;DHT22;65797;47.352;8.164;2023-03-21T00:59:16;4.90;99.90
76838;DHT22;65797;47.352;8.164;2023-03-21T01:01:42;5.00;99.90
76838;DHT22;65797;47.352;8.164;2023-03-21T01:04:08;5.00;99.90
76838;DHT22;65797;47.352;8.164;2023-03-21T01:06:38;5.00;99.90
76838;DHT22;65797;47.352;8.164;2023-03-21T01:09:05;5.00;99.90
76838;DHT22;65797;47.352;8.164;2023-03-21T01:11:34;4.90;99.90
76838;DHT22;65797;47.352;8.164;2023-03-21T01:14:00;4.90;99.90
76838;DHT22;65797;47.352;8.164;2023-03-21T01:16:26;4.90;99.90
76838;DHT22;65797;47.352;8.164;2023-03-21T01:18:52;4.90;99.90
76838;DHT22;65797;47.352;8.164;2023-03-21T01:21:18;4.80;99.90
76838;DHT22;65797;47.352;8.164;2023-03-21T01:23:44;4.70;99.90
76838;DHT22;65797;47.352;8.164;2023-03-21T01:26:11;4.70;99.90
76838;DHT22;65797;47.352;8.164;2023-03-21T01:28:39;4.70;99.90
76838;DHT22;65797;47.352;8.164;2023-03-21T01:31:06;4.70;1.00
76838;DHT22;65797;47.352;8.164;2023-03-21T01:33:33;4.60;99.90
76838;DHT22;65797;47.352;8.164;2023-03-21T01:35:59;4.60;1.00
76838;DHT22;65797;47.352;8.164;2023-03-21T01:38:26;4.60;99.90
76838;DHT22;65797;47.352;8.164;2023-03-21T01:40:52;4.50;1.00
76838;DHT22;65797;47.352;8.164;2023-03-21T01:43:31;4.50;1.00
76838;DHT22;65797;47.352;8.164;2023-03-21T01:48:41;4.40;1.00
76838;DHT22;65797;47.352;8.164;2023-03-21T01:51:10;4.40;1.00
76838;DHT22;65797;47.352;8.164;2023-03-21T01:53:38;4.40;1.00
76838;DHT22;65797;47.352;8.164;2023-03-21T01:56:46;4.40;1.00
76838;DHT22;65797;47.352;8.164;2023-03-21T01:59:18;4.20;1.00
76838;DHT22;65797;47.352;8.164;2023-03-21T02:01:48;4.10;1.00
76838;DHT22;65797;47.352;8.164;2023-03-21T02:04:16;4.00;44.60
76838;DHT22;65797;47.352;8.164;2023-03-21T02:07:08;4.00;99.90
76838;DHT22;65797;47.352;8.164;2023-03-21T02:09:36;4.00;99.90
76838;DHT22;65797;47.352;8.164;2023-03-21T02:12:02;4.00;73.60
76838;DHT22;65797;47.352;8.164;2023-03-21T02:14:31;4.00;99.90
76838;DHT22;65797;47.352;8.164;2023-03-21T02:28:17;4.00;1.00
76838;DHT22;65797;47.352;8.164;2023-03-21T02:36:28;3.80;1.00
76838;DHT22;65797;47.352;8.164;2023-03-21T02:44:50;3.70;69.90
76838;DHT22;65797;47.352;8.164;2023-03-21T02:47:38;3.70;1.00
76838;DHT22;65797;47.352;8.164;2023-03-21T02:50:15;3.70;29.30
76838;DHT22;65797;47.352;8.164;2023-03-21T02:52:45;3.70;1.00
76838;DHT22;65797;47.352;8.164;2023-03-21T02:55:19;3.60;1.00
76838;DHT22;65797;47.352;8.164;2023-03-21T02:57:48;3.60;1.00
76838;DHT22;65797;47.352;8.164;2023-03-21T03:00:23;3.60;1.00
76838;DHT22;65797;47.352;8.164;2023-03-21T03:02:50;3.40;1.00
76838;DHT22;65797;47.352;8.164;2023-03-21T03:05:21;3.30;49.90
76838;DHT22;65797;47.352;8.164;2023-03-21T03:14:07;3.20;99.90
76838;DHT22;65797;47.352;8.164;2023-03-21T03:16:32;3.30;1.00
76838;DHT22;65797;47.352;8.164;2023-03-21T03:19:04;3.30;70.30
76838;DHT22;65797;47.352;8.164;2023-03-21T03:21:43;3.30;1.00
76838;DHT22;65797;47.352;8.164;2023-03-21T03:24:11;3.30;99.90
76838;DHT22;65797;47.352;8.164;2023-03-21T03:26:55;3.20;1.00
76838;DHT22;65797;47.352;8.164;2023-03-21T03:29:23;3.30;99.90
76838;DHT22;65797;47.352;8.164;2023-03-21T03:31:59;3.20;99.90
76838;DHT22;65797;47.352;8.164;2023-03-21T03:34:29;3.20;99.90
76838;DHT22;65797;47.352;8.164;2023-03-21T03:36:58;3.20;99.90
76838;DHT22;65797;47.352;8.164;2023-03-21T03:39:32;3.10;99.90
76838;DHT22;65797;47.352;8.164;2023-03-21T03:42:07;3.10;1.00
76838;DHT22;65797;47.352;8.164;2023-03-21T03:44:35;3.10;1.00
76838;DHT22;65797;47.352;8.164;2023-03-21T03:47:05;3.10;1.00
76838;DHT22;65797;47.352;8.164;2023-03-21T03:49:46;3.10;1.00
76838;DHT22;65797;47.352;8.164;2023-03-21T03:52:19;3.10;99.90
76838;DHT22;65797;47.352;8.164;2023-03-21T03:54:48;3.10;99.90
76838;DHT22;65797;47.352;8.164;2023-03-21T03:57:14;3.10;99.90
76838;DHT22;65797;47.352;8.164;2023-03-21T03:59:43;3.10;99.90
76838;DHT22;65797;47.352;8.164;2023-03-21T04:02:09;3.00;99.90
76838;DHT22;65797;47.352;8.164;2023-03-21T04:04:35;3.10;99.90
76838;DHT22;65797;47.352;8.164;2023-03-21T04:07:01;3.00;1.00
76838;DHT22;65797;47.352;8.164;2023-03-21T04:09:28;2.90;1.00
76838;DHT22;65797;47.352;8.164;2023-03-21T04:11:55;2.90;99.90
76838;DHT22;65797;47.352;8.164;2023-03-21T04:14:22;3.00;99.90
76838;DHT22;65797;47.352;8.164;2023-03-21T04:16:47;2.90;1.00
76838;DHT22;65797;47.352;8.164;2023-03-21T04:19:13;2.90;1.00
76838;DHT22;65797;47.352;8.164;2023-03-21T04:21:41;2.80;1.00
76838;DHT22;65797;47.352;8.164;2023-03-21T04:24:07;2.80;1.00
76838;DHT22;65797;47.352;8.164;2023-03-21T04:26:33;2.90;1.00
76838;DHT22;65797;47.352;8.164;2023-03-21T04:29:00;2.80;1.00
76838;DHT22;65797;47.352;8.164;2023-03-21T04:31:27;2.80;1.00
76838;DHT22;65797;47.352;8.164;2023-03-21T04:33:56;2.70;1.00
76838;DHT22;65797;47.352;8.164;2023-03-21T04:36:22;2.70;1.00
76838;DHT22;65797;47.352;8.164;2023-03-21T04:38:58;2.70;1.00
76838;DHT22;65797;47.352;8.164;2023-03-21T04:41:29;2.70;1.00
76838;DHT22;65797;47.352;8.164;2023-03-21T04:43:55;2.70;1.00
76838;DHT22;65797;47.352;8.164;2023-03-21T04:46:22;2.70;1.00
76838;DHT22;65797;47.352;8.164;2023-03-21T04:48:47;2.70;1.00
76838;DHT22;65797;47.352;8.164;2023-03-21T04:51:14;2.70;26.90
76838;DHT22;65797;47.352;8.164;2023-03-21T04:53:40;2.70;99.90
76838;DHT22;65797;47.352;8.164;2023-03-21T04:56:12;2.60;1.00
76838;DHT22;65797;47.352;8.164;2023-03-21T04:58:38;2.50;1.00
76838;DHT22;65797;47.352;8.164;2023-03-21T05:01:05;2.60;99.90
76838;DHT22;65797;47.352;8.164;2023-03-21T05:03:32;2.50;91.50
76838;DHT22;65797;47.352;8.164;2023-03-21T05:06:08;2.50;99.90
76838;DHT22;65797;47.352;8.164;2023-03-21T05:08:35;2.40;99.90
76838;DHT22;65797;47.352;8.164;2023-03-21T05:11:02;2.30;79.60
76838;DHT22;65797;47.352;8.164;2023-03-21T05:13:28;2.20;99.90
76838;DHT22;65797;47.352;8.164;2023-03-21T05:15:53;2.30;26.10
76838;DHT22;65797;47.352;8.164;2023-03-21T05:18:20;2.30;1.00
76838;DHT22;65797;47.352;8.164;2023-03-21T05:20:50;2.40;1.00
76838;DHT22;65797;47.352;8.164;2023-03-21T05:23:23;2.40;99.90
76838;DHT22;65797;47.352;8.164;2023-03-21T05:25:49;2.50;99.90
76838;DHT22;65797;47.352;8.164;2023-03-21T05:28:16;2.50;99.90
76838;DHT22;65797;47.352;8.164;2023-03-21T05:30:45;2.50;1.00
76838;DHT22;65797;47.352;8.164;2023-03-21T05:33:11;2.50;99.90
76838;DHT22;65797;47.352;8.164;2023-03-21T05:35:38;2.40;99.90
76838;DHT22;65797;47.352;8.164;2023-03-21T05:38:06;2.40;99.90
76838;DHT22;65797;47.352;8.164;2023-03-21T05:40:32;2.40;99.90
76838;DHT22;65797;47.352;8.164;2023-03-21T05:42:57;2.40;99.90
76838;DHT22;65797;47.352;8.164;2023-03-21T05:45:24;2.40;1.00
76838;DHT22;65797;47.352;8.164;2023-03-21T05:47:50;2.40;1.00
76838;DHT22;65797;47.352;8.164;2023-03-21T05:50:16;2.50;99.90
76838;DHT22;65797;47.352;8.164;2023-03-21T05:52:42;2.50;1.00
76838;DHT22;65797;47.352;8.164;2023-03-21T05:55:08;2.50;1.00
76838;DHT22;65797;47.352;8.164;2023-03-21T05:57:34;2.50;1.00
76838;DHT22;65797;47.352;8.164;2023-03-21T06:00:04;2.50;1.00
76838;DHT22;65797;47.352;8.164;2023-03-21T06:02:30;2.60;1.00
76838;DHT22;65797;47.352;8.164;2023-03-21T06:04:56;2.60;1.00
76838;DHT22;65797;47.352;8.164;2023-03-21T06:07:21;2.70;99.90
76838;DHT22;65797;47.352;8.164;2023-03-21T06:09:47;2.80;99.90
76838;DHT22;65797;47.352;8.164;2023-03-21T06:12:13;3.00;1.00
76838;DHT22;65797;47.352;8.164;2023-03-21T06:14:39;3.30;1.00
76838;DHT22;65797;47.352;8.164;2023-03-21T06:17:04;3.50;1.00
76838;DHT22;65797;47.352;8.164;2023-03-21T06:19:30;3.60;99.90
76838;DHT22;65797;47.352;8.164;2023-03-21T06:21:56;3.80;99.90
76838;DHT22;65797;47.352;8.164;2023-03-21T06:24:22;4.00;1.00
76838;DHT22;65797;47.352;8.164;2023-03-21T06:26:47;4.20;1.00
76838;DHT22;65797;47.352;8.164;2023-03-21T06:29:13;4.40;99.90
76838;DHT22;65797;47.352;8.164;2023-03-21T06:31:39;4.60;99.90
76838;DHT22;65797;47.352;8.164;2023-03-21T06:34:05;4.80;1.00
76838;DHT22;65797;47.352;8.164;2023-03-21T06:36:31;5.10;99.90
76838;DHT22;65797;47.352;8.164;2023-03-21T06:38:57;5.40;1.00
76838;DHT22;65797;47.352;8.164;2023-03-21T06:41:22;5.70;1.00
76838;DHT22;65797;47.352;8.164;2023-03-21T06:43:48;6.10;1.00
76838;DHT22;65797;47.352;8.164;2023-03-21T06:46:14;6.30;99.90
76838;DHT22;65797;47.352;8.164;2023-03-21T06:48:39;6.30;99.90
76838;DHT22;65797;47.352;8.164;2023-03-21T06:51:10;6.20;99.90
76838;DHT22;65797;47.352;8.164;2023-03-21T06:53:36;6.40;1.00
76838;DHT22;65797;47.352;8.164;2023-03-21T06:56:02;6.70;87.40
76838;DHT22;65797;47.352;8.164;2023-03-21T06:58:28;7.00;1.00
76838;DHT22;65797;47.352;8.164;2023-03-21T07:00:56;7.10;1.00
76838;DHT22;65797;47.352;8.164;2023-03-21T07:03:22;7.30;6.50
76838;DHT22;65797;47.352;8.164;2023-03-21T07:05:49;7.50;1.00
76838;DHT22;65797;47.352;8.164;2023-03-21T07:08:14;7.80;1.00
76838;DHT22;65797;47.352;8.164;2023-03-21T07:10:41;8.00;1.00
76838;DHT22;65797;47.352;8.164;2023-03-21T07:13:08;8.10;1.00
76838;DHT22;65797;47.352;8.164;2023-03-21T07:15:33;8.30;1.00
76838;DHT22;65797;47.352;8.164;2023-03-21T07:18:03;8.80;1.00
76838;DHT22;65797;47.352;8.164;2023-03-21T07:20:28;9.10;1.00
76838;DHT22;65797;47.352;8.164;2023-03-21T07:22:55;9.10;1.00
76838;DHT22;65797;47.352;8.164;2023-03-21T07:25:21;9.20;1.00
76838;DHT22;65797;47.352;8.164;2023-03-21T07:27:47;9.70;1.00
76838;DHT22;65797;47.352;8.164;2023-03-21T07:30:12;9.90;1.00
76838;DHT22;65797;47.352;8.164;2023-03-21T07:32:38;10.00;99.90
76838;DHT22;65797;47.352;8.164;2023-03-21T07:35:11;10.30;1.00
76838;DHT22;65797;47.352;8.164;2023-03-21T07:37:37;10.60;99.90
76838;DHT22;65797;47.352;8.164;2023-03-21T07:40:03;10.60;99.90
76838;DHT22;65797;47.352;8.164;2023-03-21T07:42:34;10.70;99.90
76838;DHT22;65797;47.352;8.164;2023-03-21T07:44:59;11.00;99.90
76838;DHT22;65797;47.352;8.164;2023-03-21T07:47:25;11.00;99.90
76838;DHT22;65797;47.352;8.164;2023-03-21T07:49:51;10.50;99.90
76838;DHT22;65797;47.352;8.164;2023-03-21T07:52:17;10.60;1.00
76838;DHT22;65797;47.352;8.164;2023-03-21T07:54:42;10.80;1.00
76838;DHT22;65797;47.352;8.164;2023-03-21T07:57:08;11.00;1.00
76838;DHT22;65797;47.352;8.164;2023-03-21T07:59:34;11.00;99.90
76838;DHT22;65797;47.352;8.164;2023-03-21T08:01:59;10.80;99.90
76838;DHT22;65797;47.352;8.164;2023-03-21T08:04:25;11.20;99.90
76838;DHT22;65797;47.352;8.164;2023-03-21T08:06:52;11.70;99.90
76838;DHT22;65797;47.352;8.164;2023-03-21T08:09:17;11.90;99.90
76838;DHT22;65797;47.352;8.164;2023-03-21T08:11:44;11.80;99.90
76838;DHT22;65797;47.352;8.164;2023-03-21T08:14:09;11.70;99.90
76838;DHT22;65797;47.352;8.164;2023-03-21T08:16:35;11.60;99.90
76838;DHT22;65797;47.352;8.164;2023-03-21T08:19:01;11.40;99.90
76838;DHT22;65797;47.352;8.164;2023-03-21T08:21:27;11.60;99.90
76838;DHT22;65797;47.352;8.164;2023-03-21T08:23:53;11.70;99.90
76838;DHT22;65797;47.352;8.164;2023-03-21T08:26:19;11.80;99.90
76838;DHT22;65797;47.352;8.164;2023-03-21T08:28:45;11.90;99.90
76838;DHT22;65797;47.352;8.164;2023-03-21T08:31:11;11.90;99.90
76838;DHT22;65797;47.352;8.164;2023-03-21T08:33:37;12.00;99.90
76838;DHT22;65797;47.352;8.164;2023-03-21T08:36:04;11.90;99.90
76838;DHT22;65797;47.352;8.164;2023-03-21T08:38:30;11.90;99.90
76838;DHT22;65797;47.352;8.164;2023-03-21T08:41:01;12.00;99.90
76838;DHT22;65797;47.352;8.164;2023-03-21T08:43:28;11.90;99.90
76838;DHT22;65797;47.352;8.164;2023-03-21T08:45:54;11.90;99.90
76838;DHT22;65797;47.352;8.164;2023-03-21T08:48:20;11.70;99.90
76838;DHT22;65797;47.352;8.164;2023-03-21T08:50:46;11.70;99.90
76838;DHT22;65797;47.352;8.164;2023-03-21T08:53:12;11.70;99.90
76838;DHT22;65797;47.352;8.164;2023-03-21T08:55:37;11.70;99.90
76838;DHT22;65797;47.352;8.164;2023-03-21T08:58:04;11.70;99.90
76838;DHT22;65797;47.352;8.164;2023-03-21T09:00:30;11.70;99.90
76838;DHT22;65797;47.352;8.164;2023-03-21T09:02:56;11.70;99.90
76838;DHT22;65797;47.352;8.164;2023-03-21T09:05:23;11.60;99.90
76838;DHT22;65797;47.352;8.164;2023-03-21T09:07:51;11.60;99.90
76838;DHT22;65797;47.352;8.164;2023-03-21T09:10:19;11.70;99.90
76838;DHT22;65797;47.352;8.164;2023-03-21T09:12:46;11.70;99.90
76838;DHT22;65797;47.352;8.164;2023-03-21T09:15:13;11.90;99.90
76838;DHT22;65797;47.352;8.164;2023-03-21T09:17:40;12.00;99.90
76838;DHT22;65797;47.352;8.164;2023-03-21T09:20:09;12.00;99.90
76838;DHT22;65797;47.352;8.164;2023-03-21T09:22:38;11.90;99.90
76838;DHT22;65797;47.352;8.164;2023-03-21T09:25:04;12.10;99.90
76838;DHT22;65797;47.352;8.164;2023-03-21T09:27:32;12.20;99.90
76838;DHT22;65797;47.352;8.164;2023-03-21T09:29:59;12.40;99.90
76838;DHT22;65797;47.352;8.164;2023-03-21T09:32:25;12.50;99.90
76838;DHT22;65797;47.352;8.164;2023-03-21T09:34:52;12.70;99.90
76838;DHT22;65797;47.352;8.164;2023-03-21T09:37:20;12.60;99.90
76838;DHT22;65797;47.352;8.164;2023-03-21T09:39:46;12.70;99.90
76838;DHT22;65797;47.352;8.164;2023-03-21T09:47:43;13.00;99.90
76838;DHT22;65797;47.352;8.164;2023-03-21T09:50:23;12.90;99.90
76838;DHT22;65797;47.352;8.164;2023-03-21T09:52:56;13.00;99.90
76838;DHT22;65797;47.352;8.164;2023-03-21T09:55:33;13.30;99.90
76838;DHT22;65797;47.352;8.164;2023-03-21T09:58:15;13.40;99.90
76838;DHT22;65797;47.352;8.164;2023-03-21T10:00:47;13.60;99.90
76838;DHT22;65797;47.352;8.164;2023-03-21T10:03:23;13.10;99.90
76838;DHT22;65797;47.352;8.164;2023-03-21T10:05:54;13.10;99.90
76838;DHT22;65797;47.352;8.164;2023-03-21T10:08:35;13.20;99.90
76838;DHT22;65797;47.352;8.164;2023-03-21T10:11:28;13.40;99.90
76838;DHT22;65797;47.352;8.164;2023-03-21T10:14:00;13.90;99.90
76838;DHT22;65797;47.352;8.164;2023-03-21T10:16:33;14.30;99.90
76838;DHT22;65797;47.352;8.164;2023-03-21T10:19:05;14.60;99.90
76838;DHT22;65797;47.352;8.164;2023-03-21T10:21:32;14.80;99.90
76838;DHT22;65797;47.352;8.164;2023-03-21T10:23:59;15.00;99.90
76838;DHT22;65797;47.352;8.164;2023-03-21T10:26:26;15.30;99.90
76838;DHT22;65797;47.352;8.164;2023-03-21T10:28:57;15.70;99.90
76838;DHT22;65797;47.352;8.164;2023-03-21T10:31:24;15.60;99.90
76838;DHT22;65797;47.352;8.164;2023-03-21T10:33:53;15.90;99.90
76838;DHT22;65797;47.352;8.164;2023-03-21T10:36:22;15.80;99.90
76838;DHT22;65797;47.352;8.164;2023-03-21T10:38:54;16.10;99.90
76838;DHT22;65797;47.352;8.164;2023-03-21T10:41:20;16.40;99.90
76838;DHT22;65797;47.352;8.164;2023-03-21T10:44:07;16.40;99.90
76838;DHT22;65797;47.352;8.164;2023-03-21T10:46:33;16.50;99.90
76838;DHT22;65797;47.352;8.164;2023-03-21T10:49:00;15.90;99.90
76838;DHT22;65797;47.352;8.164;2023-03-21T10:59:20;17.00;99.90
76838;DHT22;65797;47.352;8.164;2023-03-21T11:01:51;16.50;99.90
76838;DHT22;65797;47.352;8.164;2023-03-21T11:22:38;17.60;99.90
76838;DHT22;65797;47.352;8.164;2023-03-21T11:25:07;17.80;99.90
76838;DHT22;65797;47.352;8.164;2023-03-21T11:27:34;17.70;99.90
76838;DHT22;65797;47.352;8.164;2023-03-21T11:37:51;17.10;99.90
76838;DHT22;65797;47.352;8.164;2023-03-21T11:42:55;16.70;99.90
76838;DHT22;65797;47.352;8.164;2023-03-21T11:59:50;17.20;99.90
76838;DHT22;65797;47.352;8.164;2023-03-21T12:03:35;17.60;99.90
76838;DHT22;65797;47.352;8.164;2023-03-21T12:05:52;17.90;99.90
76838;DHT22;65797;47.352;8.164;2023-03-21T12:11:37;18.00;99.90
76838;DHT22;65797;47.352;8.164;2023-03-21T12:22:34;17.80;99.90
76838;DHT22;65797;47.352;8.164;2023-03-21T12:25:12;17.90;99.90
76838;DHT22;65797;47.352;8.164;2023-03-21T12:28:03;17.80;99.90
76838;DHT22;65797;47.352;8.164;2023-03-21T15:21:13;17.60;99.90
76838;DHT22;65797;47.352;8.164;2023-03-21T15:23:46;17.50;99.90
76838;DHT22;65797;47.352;8.164;2023-03-21T15:26:15;17.50;99.90
76838;DHT22;65797;47.352;8.164;2023-03-21T17:39:41;14.60;99.90
76838;DHT22;65797;47.352;8.164;2023-03-21T17:42:14;14.40;99.90
76838;DHT22;65797;47.352;8.164;2023-03-21T17:44:40;14.40;99.90
76838;DHT22;65797;47.352;8.164;2023-03-21T17:47:06;14.40;99.90
76838;DHT22;65797;47.352;8.164;2023-03-21T17:49:31;14.40;99.90
76838;DHT22;65797;47.352;8.164;2023-03-21T17:51:57;14.30;99.90
76838;DHT22;65797;47.352;8.164;2023-03-21T17:54:23;14.30;99.90
76838;DHT22;65797;47.352;8.164;2023-03-21T17:56:48;14.10;99.90
76838;DHT22;65797;47.352;8.164;2023-03-21T17:59:14;14.00;99.90
76838;DHT22;65797;47.352;8.164;2023-03-21T18:01:40;13.90;99.90
76838;DHT22;65797;47.352;8.164;2023-03-21T18:04:06;13.90;99.90
76838;DHT22;65797;47.352;8.164;2023-03-21T18:06:34;13.80;99.90
76838;DHT22;65797;47.352;8.164;2023-03-21T18:09:02;13.70;99.90
76838;DHT22;65797;47.352;8.164;2023-03-21T18:11:31;13.60;99.90
76838;DHT22;65797;47.352;8.164;2023-03-21T18:13:57;13.50;99.90
76838;DHT22;65797;47.352;8.164;2023-03-21T18:16:23;13.50;99.90
76838;DHT22;65797;47.352;8.164;2023-03-21T18:18:50;13.40;99.90
76838;DHT22;65797;47.352;8.164;2023-03-21T18:21:19;13.30;99.90
76838;DHT22;65797;47.352;8.164;2023-03-21T18:23:45;13.40;99.90
76838;DHT22;65797;47.352;8.164;2023-03-21T18:26:14;13.30;99.90
76838;DHT22;65797;47.352;8.164;2023-03-21T18:28:40;13.30;99.90
76838;DHT22;65797;47.352;8.164;2023-03-21T18:31:09;13.20;99.90
76838;DHT22;65797;47.352;8.164;2023-03-21T18:33:38;13.20;99.90
76838;DHT22;65797;47.352;8.164;2023-03-21T18:36:05;13.20;99.90
76838;DHT22;65797;47.352;8.164;2023-03-21T18:38:31;13.10;99.90
76838;DHT22;65797;47.352;8.164;2023-03-21T18:40:57;13.00;99.90
76838;DHT22;65797;47.352;8.164;2023-03-21T18:43:23;13.00;99.90
76838;DHT22;65797;47.352;8.164;2023-03-21T18:45:49;12.90;99.90
76838;DHT22;65797;47.352;8.164;2023-03-21T18:48:16;12.80;99.90
76838;DHT22;65797;47.352;8.164;2023-03-21T18:50:42;12.80;99.90
76838;DHT22;65797;47.352;8.164;2023-03-21T18:53:07;12.70;99.90
76838;DHT22;65797;47.352;8.164;2023-03-21T18:55:34;12.60;99.90
76838;DHT22;65797;47.352;8.164;2023-03-21T18:58:00;12.50;99.90
76838;DHT22;65797;47.352;8.164;2023-03-21T19:00:26;12.40;99.90
76838;DHT22;65797;47.352;8.164;2023-03-21T19:02:52;12.40;99.90
76838;DHT22;65797;47.352;8.164;2023-03-21T19:05:21;12.40;1.00
76838;DHT22;65797;47.352;8.164;2023-03-21T19:07:47;12.40;99.90
76838;DHT22;65797;47.352;8.164;2023-03-21T19:10:15;12.30;99.90
76838;DHT22;65797;47.352;8.164;2023-03-21T19:12:41;12.30;99.90
76838;DHT22;65797;47.352;8.164;2023-03-21T19:15:07;12.10;1.00
76838;DHT22;65797;47.352;8.164;2023-03-21T19:17:33;12.10;1.00
76838;DHT22;65797;47.352;8.164;2023-03-21T19:19:59;12.00;1.00
76838;DHT22;65797;47.352;8.164;2023-03-21T19:22:25;12.00;1.00
76838;DHT22;65797;47.352;8.164;2023-03-21T19:24:54;11.90;1.00
76838;DHT22;65797;47.352;8.164;2023-03-21T19:27:20;11.90;1.00
76838;DHT22;65797;47.352;8.164;2023-03-21T19:29:45;11.80;1.00
76838;DHT22;65797;47.352;8.164;2023-03-21T19:32:11;11.80;1.00
76838;DHT22;65797;47.352;8.164;2023-03-21T19:34:37;11.80;1.00
76838;DHT22;65797;47.352;8.164;2023-03-21T19:37:03;11.60;1.00
76838;DHT22;65797;47.352;8.164;2023-03-21T19:39:28;11.50;1.00
76838;DHT22;65797;47.352;8.164;2023-03-21T19:41:54;11.40;1.00
76838;DHT22;65797;47.352;8.164;2023-03-21T19:44:21;11.50;1.00
76838;DHT22;65797;47.352;8.164;2023-03-21T19:46:47;11.40;1.00
76838;DHT22;65797;47.352;8.164;2023-03-21T19:49:17;11.40;1.00
76838;DHT22;65797;47.352;8.164;2023-03-21T19:51:46;11.30;1.00
76838;DHT22;65797;47.352;8.164;2023-03-21T19:54:12;11.30;1.00
76838;DHT22;65797;47.352;8.164;2023-03-21T19:56:38;11.40;1.00
76838;DHT22;65797;47.352;8.164;2023-03-21T19:59:05;11.40;1.00
76838;DHT22;65797;47.352;8.164;2023-03-21T20:01:31;11.30;1.00
76838;DHT22;65797;47.352;8.164;2023-03-21T20:03:57;11.20;1.00
76838;DHT22;65797;47.352;8.164;2023-03-21T20:06:23;11.10;1.00
76838;DHT22;65797;47.352;8.164;2023-03-21T20:08:52;11.10;1.00
76838;DHT22;65797;47.352;8.164;2023-03-21T20:11:19;11.00;1.00
76838;DHT22;65797;47.352;8.164;2023-03-21T20:13:45;11.00;1.00
76838;DHT22;65797;47.352;8.164;2023-03-21T20:16:12;10.90;1.00
76838;DHT22;65797;47.352;8.164;2023-03-21T20:18:38;10.80;1.00
76838;DHT22;65797;47.352;8.164;2023-03-21T20:21:04;10.80;1.00
76838;DHT22;65797;47.352;8.164;2023-03-21T20:23:31;10.80;1.00
76838;DHT22;65797;47.352;8.164;2023-03-21T20:26:00;10.80;1.00
76838;DHT22;65797;47.352;8.164;2023-03-21T20:28:26;10.80;1.00
76838;DHT22;65797;47.352;8.164;2023-03-21T20:30:54;10.80;1.00
76838;DHT22;65797;47.352;8.164;2023-03-21T20:33:25;10.70;1.00
76838;DHT22;65797;47.352;8.164;2023-03-21T20:35:58;10.80;1.00
76838;DHT22;65797;47.352;8.164;2023-03-21T20:38:27;10.70;1.00
76838;DHT22;65797;47.352;8.164;2023-03-21T20:40:56;10.70;1.00
76838;DHT22;65797;47.352;8.164;2023-03-21T20:43:22;10.60;1.00
76838;DHT22;65797;47.352;8.164;2023-03-21T20:45:48;10.60;1.00
76838;DHT22;65797;47.352;8.164;2023-03-21T20:48:13;10.60;1.00
76838;DHT22;65797;47.352;8.164;2023-03-21T20:50:41;10.50;1.00
76838;DHT22;65797;47.352;8.164;2023-03-21T20:53:08;10.50;1.00
76838;DHT22;65797;47.352;8.164;2023-03-21T20:55:35;10.40;1.00
76838;DHT22;65797;47.352;8.164;2023-03-21T20:58:01;10.30;1.00
76838;DHT22;65797;47.352;8.164;2023-03-21T21:00:28;10.10;1.00
76838;DHT22;65797;47.352;8.164;2023-03-21T21:02:54;10.20;20.40
76838;DHT22;65797;47.352;8.164;2023-03-21T21:05:20;10.20;1.00
76838;DHT22;65797;47.352;8.164;2023-03-21T21:07:46;10.20;1.00
76838;DHT22;65797;47.352;8.164;2023-03-21T21:10:15;10.20;1.00
76838;DHT22;65797;47.352;8.164;2023-03-21T21:12:41;10.20;1.00
76838;DHT22;65797;47.352;8.164;2023-03-21T21:15:10;10.20;1.00
76838;DHT22;65797;47.352;8.164;2023-03-21T21:17:36;10.20;1.00
76838;DHT22;65797;47.352;8.164;2023-03-21T21:20:05;10.20;1.00
76838;DHT22;65797;47.352;8.164;2023-03-21T21:22:51;10.20;1.00
76838;DHT22;65797;47.352;8.164;2023-03-21T21:25:17;10.10;1.00
76838;DHT22;65797;47.352;8.164;2023-03-21T21:27:44;10.10;27.00
76838;DHT22;65797;47.352;8.164;2023-03-21T21:30:11;10.10;88.00
76838;DHT22;65797;47.352;8.164;2023-03-21T21:32:38;10.10;50.20
76838;DHT22;65797;47.352;8.164;2023-03-21T21:35:05;10.10;25.30
76838;DHT22;65797;47.352;8.164;2023-03-21T21:37:31;10.10;58.00
76838;DHT22;65797;47.352;8.164;2023-03-21T21:39:59;10.10;16.30
76838;DHT22;65797;47.352;8.164;2023-03-21T21:42:25;10.10;49.50
76838;DHT22;65797;47.352;8.164;2023-03-21T21:44:51;10.10;96.00
76838;DHT22;65797;47.352;8.164;2023-03-21T21:47:17;10.10;28.80
76838;DHT22;65797;47.352;8.164;2023-03-21T21:49:43;10.10;69.00
76838;DHT22;65797;47.352;8.164;2023-03-21T21:52:08;10.10;36.20
76838;DHT22;65797;47.352;8.164;2023-03-21T21:54:38;10.10;1.00
76838;DHT22;65797;47.352;8.164;2023-03-21T21:57:10;10.10;37.50
76838;DHT22;65797;47.352;8.164;2023-03-21T21:59:36;10.00;99.90
76838;DHT22;65797;47.352;8.164;2023-03-21T22:02:02;9.90;99.90
76838;DHT22;65797;47.352;8.164;2023-03-21T22:04:28;10.00;99.90
76838;DHT22;65797;47.352;8.164;2023-03-21T22:06:54;10.00;99.90
76838;DHT22;65797;47.352;8.164;2023-03-21T22:09:20;10.00;91.70
76838;DHT22;65797;47.352;8.164;2023-03-21T22:11:46;10.00;1.00
76838;DHT22;65797;47.352;8.164;2023-03-21T22:14:12;10.10;1.00
76838;DHT22;65797;47.352;8.164;2023-03-21T22:16:38;10.10;8.60
76838;DHT22;65797;47.352;8.164;2023-03-21T22:19:03;10.10;12.90
76838;DHT22;65797;47.352;8.164;2023-03-21T22:21:29;10.10;1.00
76838;DHT22;65797;47.352;8.164;2023-03-21T22:23:55;10.10;32.90
76838;DHT22;65797;47.352;8.164;2023-03-21T22:26:21;10.10;99.90
76838;DHT22;65797;47.352;8.164;2023-03-21T22:28:46;10.00;99.90